Time;durP1;ratioP1;P1;durP2;ratioP2;P2;SDS_P1;SDS_P2;PMS_P1;PMS_P2;Temp;Humidity;BMP_temperature;BMP_pressure;BME280_temperature;BME280_humidity;BME280_pressure;Samples;Min_cycle;Max_cycle;Signal;HPM_P1;HPM_P2
2021/06/28 00:01:34;;;;;;;0.00;0.00;;;23.60;71.30;;;;;;4208517;28;20502;-55
2021/06/28 00:03:56;;;;;;;0.08;0.08;;;23.60;71.30;;;;;;4207876;28;20044;-52
2021/06/28 00:06:18;;;;;;;0.00;0.00;;;23.50;71.30;;;;;;4207878;28;20044;-53
2021/06/28 00:08:42;;;;;;;1.60;0.43;;;23.50;71.30;;;;;;4208211;28;20103;-52
2021/06/28 00:11:05;;;;;;;0.43;0.43;;;23.50;71.30;;;;;;4207828;28;20055;-56
2021/06/28 00:13:27;;;;;;;0.00;0.00;;;23.50;71.30;;;;;;4207977;28;20052;-53
2021/06/28 00:15:49;;;;;;;0.13;0.13;;;23.50;71.30;;;;;;4174702;28;20414;-53
2021/06/28 00:18:13;;;;;;;0.20;0.20;;;23.50;71.40;;;;;;4177252;28;20052;-52
2021/06/28 00:20:36;;;;;;;0.00;0.00;;;23.50;71.50;;;;;;4207116;28;20143;-52
2021/06/28 00:22:58;;;;;;;0.00;0.00;;;23.50;71.50;;;;;;4208121;28;20064;-54
2021/06/28 00:25:22;;;;;;;0.00;0.00;;;23.50;71.60;;;;;;4208179;28;20056;-54
2021/06/28 00:27:45;;;;;;;0.20;0.20;;;23.40;71.50;;;;;;4208137;28;20051;-51
2021/06/28 00:30:23;;;;;;;0.10;0.10;;;23.40;71.60;;;;;;4207260;28;20077;-51
2021/06/28 00:32:45;;;;;;;0.65;0.65;;;23.40;71.60;;;;;;4208065;28;20214;-53
2021/06/28 00:35:09;;;;;;;0.00;0.00;;;23.40;71.60;;;;;;4189835;28;20127;-52
2021/06/28 00:37:31;;;;;;;0.13;0.13;;;23.40;71.70;;;;;;4191298;28;20067;-52
2021/06/28 00:39:54;;;;;;;0.00;0.00;;;23.40;71.80;;;;;;4191499;28;20495;-54
2021/06/28 00:42:17;;;;;;;0.00;0.00;;;23.30;71.70;;;;;;4191384;28;20051;-53
2021/06/28 00:44:39;;;;;;;0.00;0.00;;;23.30;71.70;;;;;;4194414;28;20491;-55
2021/06/28 00:47:01;;;;;;;0.00;0.00;;;23.30;71.80;;;;;;4208024;28;20068;-55
2021/06/28 00:49:23;;;;;;;0.00;0.00;;;23.30;72.60;;;;;;4206261;28;20052;-55
2021/06/28 00:51:45;;;;;;;0.00;0.00;;;23.30;71.80;;;;;;4207977;28;20538;-56
2021/06/28 00:54:08;;;;;;;0.25;0.25;;;23.30;71.80;;;;;;4207930;28;20090;-55
2021/06/28 00:56:30;;;;;;;0.00;0.00;;;23.30;71.80;;;;;;4208097;28;20052;-55
2021/06/28 00:58:57;;;;;;;0.98;0.55;;;23.30;71.80;;;;;;4207825;28;20047;-55
2021/06/28 01:01:19;;;;;;;0.00;0.00;;;23.30;71.80;;;;;;4209440;28;20463;-54
2021/06/28 01:03:41;;;;;;;0.00;0.00;;;23.30;71.80;;;;;;4211243;28;20055;-55
2021/06/28 01:06:03;;;;;;;0.00;0.00;;;23.30;71.80;;;;;;4194688;28;20145;-55
2021/06/28 01:08:26;;;;;;;0.00;0.00;;;23.30;71.80;;;;;;4194394;28;20045;-51
2021/06/28 01:10:48;;;;;;;0.00;0.00;;;23.30;71.90;;;;;;4192961;28;20052;-51
2021/06/28 01:13:10;;;;;;;1.77;0.80;;;23.20;71.90;;;;;;4194269;28;20075;-51
2021/06/28 01:15:34;;;;;;;0.55;0.30;;;23.30;71.90;;;;;;4198511;28;20752;-53
2021/06/28 01:17:57;;;;;;;0.05;0.05;;;23.20;71.90;;;;;;4210949;28;20615;-52
2021/06/28 01:20:22;;;;;;;0.20;0.20;;;23.20;71.90;;;;;;4210635;28;20121;-53
2021/06/28 01:22:46;;;;;;;0.10;0.10;;;23.30;72.00;;;;;;4210926;28;20410;-54
2021/06/28 01:25:11;;;;;;;0.00;0.00;;;23.20;71.90;;;;;;4210996;28;20440;-53
2021/06/28 01:27:34;;;;;;;0.10;0.10;;;23.20;71.90;;;;;;4210508;28;20052;-53
2021/06/28 01:29:57;;;;;;;0.00;0.00;;;23.20;72.00;;;;;;4209147;28;20054;-55
2021/06/28 01:32:19;;;;;;;0.00;0.00;;;23.20;72.00;;;;;;4209017;28;20184;-52
2021/06/28 01:34:42;;;;;;;0.00;0.00;;;23.20;72.00;;;;;;4206667;28;20583;-52
2021/06/28 01:37:13;;;;;;;0.00;0.00;;;23.20;72.10;;;;;;4194017;28;20556;-54
2021/06/28 01:39:35;;;;;;;0.00;0.00;;;23.20;72.10;;;;;;4196052;28;21010;-52
2021/06/28 01:41:59;;;;;;;0.00;0.00;;;23.20;72.10;;;;;;4210633;28;20056;-54
2021/06/28 01:44:21;;;;;;;0.00;0.00;;;23.20;72.10;;;;;;4210827;28;20043;-52
2021/06/28 01:46:43;;;;;;;0.00;0.00;;;23.20;72.10;;;;;;4193860;28;20083;-54
2021/06/28 01:49:06;;;;;;;0.00;0.00;;;23.20;72.10;;;;;;4201121;28;20456;-55
2021/06/28 01:51:28;;;;;;;0.73;0.47;;;23.20;72.20;;;;;;4208714;28;20479;-52
2021/06/28 01:53:50;;;;;;;0.00;0.00;;;23.20;72.20;;;;;;4199120;28;20060;-54
2021/06/28 01:56:12;;;;;;;0.15;0.15;;;23.20;73.10;;;;;;4210173;28;20135;-54
2021/06/28 01:58:35;;;;;;;0.00;0.00;;;23.20;72.30;;;;;;4210448;28;20058;-51
2021/06/28 02:00:57;;;;;;;0.10;0.10;;;23.10;72.20;;;;;;4209779;28;20136;-52
2021/06/28 02:03:21;;;;;;;1.75;1.25;;;23.20;72.40;;;;;;4210095;28;20048;-54
2021/06/28 02:05:46;;;;;;;0.50;0.50;;;23.10;72.30;;;;;;4210102;28;20044;-49
2021/06/28 02:08:10;;;;;;;0.00;0.00;;;23.10;72.20;;;;;;4210455;28;20055;-54
2021/06/28 02:10:33;;;;;;;0.40;0.40;;;23.10;72.30;;;;;;4209915;28;20068;-52
2021/06/28 02:12:55;;;;;;;0.00;0.00;;;23.10;72.30;;;;;;4209700;28;20051;-50
2021/06/28 02:15:20;;;;;;;0.00;0.00;;;23.10;72.40;;;;;;4210398;28;20105;-52
2021/06/28 02:17:42;;;;;;;0.00;0.00;;;23.10;72.40;;;;;;4209991;28;20055;-53
2021/06/28 02:20:05;;;;;;;0.00;0.00;;;23.10;72.40;;;;;;4209820;28;20040;-52
2021/06/28 02:22:27;;;;;;;0.00;0.00;;;23.10;72.50;;;;;;4209718;28;20048;-56
2021/06/28 02:24:50;;;;;;;0.00;0.00;;;23.00;72.50;;;;;;4208483;28;20048;-54
2021/06/28 02:27:12;;;;;;;0.00;0.00;;;23.10;72.50;;;;;;4202395;28;20444;-56
2021/06/28 02:29:34;;;;;;;0.00;0.00;;;23.10;72.60;;;;;;4209836;28;20139;-51
2021/06/28 02:31:57;;;;;;;0.00;0.00;;;23.00;72.60;;;;;;4208356;28;20086;-52
2021/06/28 02:34:19;;;;;;;0.55;0.55;;;23.00;72.60;;;;;;4209857;28;20048;-53
2021/06/28 02:36:42;;;;;;;0.00;0.00;;;23.00;72.60;;;;;;4208634;28;20083;-50
2021/06/28 02:39:07;;;;;;;0.00;0.00;;;23.00;72.80;;;;;;4209576;28;20525;-51
2021/06/28 02:41:29;;;;;;;0.00;0.00;;;23.00;72.90;;;;;;4205283;28;20054;-51
2021/06/28 02:43:52;;;;;;;0.00;0.00;;;23.00;72.90;;;;;;4208852;28;20487;-53
2021/06/28 02:46:15;;;;;;;0.10;0.10;;;23.00;72.90;;;;;;4209740;28;20493;-54
2021/06/28 02:48:38;;;;;;;0.10;0.10;;;23.00;72.90;;;;;;4209482;28;20051;-53
2021/06/28 02:51:00;;;;;;;0.10;0.10;;;23.00;72.90;;;;;;4209607;28;20493;-52
2021/06/28 02:53:23;;;;;;;0.10;0.10;;;23.00;72.90;;;;;;4209440;28;20516;-54
2021/06/28 02:55:45;;;;;;;0.10;0.10;;;23.00;72.90;;;;;;4209314;28;20135;-53
2021/06/28 02:58:07;;;;;;;0.80;0.80;;;23.00;73.00;;;;;;4209294;28;20052;-52
2021/06/28 03:00:29;;;;;;;0.00;0.00;;;23.00;73.00;;;;;;4192533;28;20048;-54
2021/06/28 03:02:52;;;;;;;0.00;0.00;;;23.00;73.00;;;;;;4198084;28;20047;-53
2021/06/28 03:05:16;;;;;;;0.00;0.00;;;23.00;73.10;;;;;;4209466;28;20121;-55
2021/06/28 03:07:38;;;;;;;0.10;0.10;;;23.00;73.10;;;;;;4209381;28;20557;-54
2021/06/28 03:10:00;;;;;;;0.00;0.00;;;23.00;73.10;;;;;;4209245;28;20044;-54
2021/06/28 03:12:22;;;;;;;0.00;0.00;;;23.00;73.00;;;;;;4209164;28;20048;-55
2021/06/28 03:14:45;;;;;;;0.00;0.00;;;23.00;73.10;;;;;;4209186;28;20040;-53
2021/06/28 03:17:07;;;;;;;0.00;0.00;;;23.00;73.00;;;;;;4208740;28;20440;-54
2021/06/28 03:19:30;;;;;;;0.00;0.00;;;23.00;73.10;;;;;;4204865;28;20129;-54
2021/06/28 03:21:54;;;;;;;0.10;0.10;;;23.00;73.10;;;;;;4191600;28;20097;-56
2021/06/28 03:24:16;;;;;;;0.75;0.75;;;23.00;73.10;;;;;;4208630;28;20050;-56
2021/06/28 03:26:38;;;;;;;0.00;0.00;;;23.00;73.10;;;;;;4208942;28;20081;-56
2021/06/28 03:29:00;;;;;;;0.00;0.00;;;23.00;73.10;;;;;;4209070;28;20090;-53
2021/06/28 03:31:22;;;;;;;0.00;0.00;;;23.00;73.20;;;;;;4208960;28;20047;-55
2021/06/28 03:33:44;;;;;;;0.00;0.00;;;23.00;73.20;;;;;;4208452;28;20075;-49
2021/06/28 03:36:08;;;;;;;1.35;0.90;;;22.90;73.10;;;;;;4208622;28;20044;-52
2021/06/28 03:38:32;;;;;;;0.30;0.30;;;22.90;73.20;;;;;;4208172;28;20051;-53
2021/06/28 03:40:54;;;;;;;0.00;0.00;;;22.90;73.30;;;;;;4208903;28;20132;-54
2021/06/28 03:43:16;;;;;;;0.17;0.17;;;23.00;73.30;;;;;;4208828;28;20077;-53
2021/06/28 03:45:39;;;;;;;0.05;0.05;;;23.00;74.20;;;;;;4208533;28;20059;-53
2021/06/28 03:48:03;;;;;;;0.20;0.20;;;22.90;73.30;;;;;;4208512;28;20129;-52
2021/06/28 03:50:26;;;;;;;0.00;0.00;;;23.00;73.30;;;;;;4208467;28;20040;-50
2021/06/28 03:52:48;;;;;;;0.00;0.00;;;23.00;73.30;;;;;;4207927;28;20072;-52
2021/06/28 03:55:12;;;;;;;0.00;0.00;;;23.00;73.30;;;;;;4208536;28;20107;-56
2021/06/28 03:57:34;;;;;;;0.00;0.00;;;23.00;73.30;;;;;;4208683;28;20059;-55
2021/06/28 03:59:56;;;;;;;0.00;0.00;;;23.00;73.20;;;;;;4208598;28;20055;-54
2021/06/28 04:02:19;;;;;;;0.10;0.10;;;23.00;73.30;;;;;;4208055;28;20056;-51
2021/06/28 04:04:47;;;;;;;0.28;0.28;;;23.00;73.30;;;;;;4208315;28;20127;-53
2021/06/28 04:07:09;;;;;;;0.30;0.30;;;22.90;73.30;;;;;;4208062;28;20584;-54
2021/06/28 04:09:31;;;;;;;0.00;0.00;;;22.90;73.30;;;;;;4207955;28;20095;-53
2021/06/28 04:11:55;;;;;;;0.57;0.57;;;22.90;73.40;;;;;;4208294;28;20075;-55
2021/06/28 04:14:17;;;;;;;0.00;0.00;;;22.90;73.30;;;;;;4208262;28;20059;-55
2021/06/28 04:16:39;;;;;;;4.90;0.50;;;22.90;73.30;;;;;;4206876;28;20522;-55
2021/06/28 04:19:02;;;;;;;0.00;0.00;;;22.90;73.30;;;;;;4191573;28;21561;-52
2021/06/28 04:21:24;;;;;;;0.22;0.22;;;22.90;73.30;;;;;;4191571;28;20048;-54
2021/06/28 04:23:46;;;;;;;0.00;0.00;;;22.90;73.40;;;;;;4191228;28;20049;-54
2021/06/28 04:26:09;;;;;;;0.00;0.00;;;22.90;73.30;;;;;;4191511;28;20131;-50
2021/06/28 04:28:32;;;;;;;0.00;0.00;;;23.00;73.40;;;;;;4199143;28;20051;-52
2021/06/28 04:30:54;;;;;;;0.00;0.00;;;22.90;73.30;;;;;;4208302;28;20064;-55
2021/06/28 04:33:17;;;;;;;0.00;0.00;;;23.00;73.40;;;;;;4207173;28;20048;-53
2021/06/28 04:35:39;;;;;;;0.40;0.30;;;22.90;73.40;;;;;;4207252;28;20060;-53
2021/06/28 04:38:01;;;;;;;0.00;0.00;;;22.90;73.40;;;;;;4208160;28;20094;-53
2021/06/28 04:40:27;;;;;;;0.00;0.00;;;22.90;73.40;;;;;;4207664;28;20055;-55
2021/06/28 04:42:50;;;;;;;0.00;0.00;;;22.90;73.50;;;;;;4208082;28;20135;-55
2021/06/28 04:45:15;;;;;;;0.00;0.00;;;22.90;73.70;;;;;;4207978;28;20067;-54
2021/06/28 04:47:37;;;;;;;0.00;0.00;;;22.90;73.60;;;;;;4201177;28;20051;-55
2021/06/28 04:50:02;;;;;;;0.00;0.00;;;22.90;73.70;;;;;;4200473;28;20059;-56
2021/06/28 04:52:24;;;;;;;0.25;0.25;;;22.90;73.70;;;;;;4203481;28;20583;-53
2021/06/28 04:54:47;;;;;;;0.00;0.00;;;22.90;73.70;;;;;;4206461;28;20123;-52
2021/06/28 04:57:09;;;;;;;0.00;0.00;;;22.90;74.20;;;;;;4207755;28;20197;-54
2021/06/28 04:59:31;;;;;;;0.00;0.00;;;22.90;74.30;;;;;;4207554;28;20052;-53
2021/06/28 05:01:55;;;;;;;0.00;0.00;;;22.90;74.00;;;;;;4184939;28;20418;-54
2021/06/28 05:04:17;;;;;;;0.68;0.68;;;22.90;73.90;;;;;;4207670;28;20055;-52
2021/06/28 05:06:39;;;;;;;0.00;0.00;;;22.90;73.80;;;;;;4207167;28;20059;-53
2021/06/28 05:09:01;;;;;;;0.00;0.00;;;22.90;73.70;;;;;;4207267;28;20047;-53
2021/06/28 05:11:24;;;;;;;0.10;0.10;;;22.90;73.70;;;;;;4207891;28;20125;-54
2021/06/28 05:13:46;;;;;;;0.00;0.00;;;22.90;73.70;;;;;;4207423;28;20048;-55
2021/06/28 05:16:12;;;;;;;0.50;0.50;;;22.90;73.70;;;;;;4206910;28;20051;-51
2021/06/28 05:18:35;;;;;;;0.00;0.00;;;22.90;73.70;;;;;;4207561;28;20052;-55
2021/06/28 05:20:57;;;;;;;0.13;0.13;;;22.90;73.80;;;;;;4207602;28;20048;-52
2021/06/28 05:23:20;;;;;;;0.00;0.00;;;22.80;73.70;;;;;;4207229;28;20089;-53
2021/06/28 05:25:44;;;;;;;0.10;0.10;;;22.80;73.70;;;;;;4207434;28;20056;-53
2021/06/28 05:28:06;;;;;;;0.13;0.13;;;22.90;73.80;;;;;;4190924;28;20041;-53
2021/06/28 05:30:29;;;;;;;0.20;0.20;;;22.80;73.70;;;;;;4191009;28;20048;-54
2021/06/28 05:32:51;;;;;;;0.20;0.20;;;22.90;74.00;;;;;;4190288;28;20049;-54
2021/06/28 05:35:14;;;;;;;0.00;0.00;;;22.80;74.10;;;;;;4191760;28;20078;-50
2021/06/28 05:37:37;;;;;;;0.00;0.00;;;22.80;74.10;;;;;;4204290;28;20055;-50
2021/06/28 05:39:59;;;;;;;0.00;0.00;;;22.80;74.20;;;;;;4207362;28;20454;-54
2021/06/28 05:42:21;;;;;;;0.00;0.00;;;22.80;74.10;;;;;;4207180;28;20048;-53
2021/06/28 05:44:44;;;;;;;0.05;0.05;;;22.90;74.20;;;;;;4207148;28;20143;-54
2021/06/28 05:47:07;;;;;;;0.70;0.15;;;22.80;74.30;;;;;;4201332;28;20048;-50
2021/06/28 05:49:30;;;;;;;0.32;0.32;;;22.80;74.60;;;;;;4208394;28;20048;-50
2021/06/28 05:51:56;;;;;;;0.00;0.00;;;22.80;75.50;;;;;;4209428;28;20113;-51
2021/06/28 05:54:18;;;;;;;0.00;0.00;;;22.80;76.10;;;;;;4184390;28;20094;-51
2021/06/28 05:56:40;;;;;;;0.00;0.00;;;22.80;75.30;;;;;;4205008;28;20414;-48
2021/06/28 05:59:02;;;;;;;0.00;0.00;;;22.80;75.00;;;;;;4209237;28;20047;-52
2021/06/28 06:01:24;;;;;;;0.00;0.00;;;22.80;75.00;;;;;;4210509;28;20048;-53
2021/06/28 06:03:46;;;;;;;4.90;2.47;;;22.80;74.90;;;;;;4199527;28;20056;-53
2021/06/28 06:06:08;;;;;;;0.00;0.00;;;22.80;74.90;;;;;;4209090;28;20048;-50
2021/06/28 06:08:34;;;;;;;0.00;0.00;;;22.80;75.00;;;;;;4210197;28;20144;-50
2021/06/28 06:10:58;;;;;;;0.63;0.38;;;22.80;74.90;;;;;;4204476;28;20094;-49
2021/06/28 06:13:21;;;;;;;0.52;0.52;;;22.80;74.90;;;;;;4207542;28;20498;-52
2021/06/28 06:15:43;;;;;;;0.00;0.00;;;22.80;74.80;;;;;;4210076;28;20750;-49
2021/06/28 06:18:05;;;;;;;0.30;0.30;;;22.80;74.90;;;;;;4209093;28;20098;-50
2021/06/28 06:20:28;;;;;;;0.30;0.30;;;22.80;74.90;;;;;;4209234;28;20873;-51
2021/06/28 06:22:52;;;;;;;0.05;0.05;;;22.80;74.90;;;;;;4208788;28;20409;-49
2021/06/28 06:25:15;;;;;;;0.00;0.00;;;22.80;74.90;;;;;;4208916;28;20051;-51
2021/06/28 06:27:38;;;;;;;0.08;0.08;;;22.80;74.90;;;;;;4209006;28;20609;-53
2021/06/28 06:30:00;;;;;;;0.20;0.20;;;22.80;74.90;;;;;;4209576;28;20122;-54
2021/06/28 06:32:22;;;;;;;0.20;0.20;;;22.80;74.90;;;;;;4209628;28;20520;-49
2021/06/28 06:34:44;;;;;;;0.00;0.00;;;22.80;74.80;;;;;;4209181;28;20504;-51
2021/06/28 06:37:06;;;;;;;0.00;0.00;;;22.80;74.70;;;;;;4209949;28;20044;-51
2021/06/28 06:39:30;;;;;;;0.15;0.15;;;22.90;74.90;;;;;;4209303;28;20426;-49
2021/06/28 06:41:54;;;;;;;0.35;0.35;;;22.90;74.90;;;;;;4209854;28;20105;-55
2021/06/28 06:44:16;;;;;;;0.55;0.43;;;22.90;75.90;;;;;;4209518;28;20071;-50
2021/06/28 06:46:38;;;;;;;6.65;1.65;;;23.00;75.00;;;;;;4208607;28;20044;-51
2021/06/28 06:49:01;;;;;;;0.00;0.00;;;23.00;75.00;;;;;;4209036;28;20047;-52
2021/06/28 06:51:23;;;;;;;0.08;0.08;;;23.00;75.00;;;;;;4209293;28;20117;-52
2021/06/28 06:53:45;;;;;;;0.00;0.00;;;23.00;74.90;;;;;;4209236;28;20059;-49
2021/06/28 06:56:07;;;;;;;0.08;0.08;;;23.00;74.90;;;;;;4208842;28;20059;-53
2021/06/28 06:58:31;;;;;;;0.00;0.00;;;23.10;74.80;;;;;;4208439;28;20055;-55
2021/06/28 07:00:53;;;;;;;0.00;0.00;;;23.10;74.90;;;;;;4208913;28;20134;-56
2021/06/28 07:03:15;;;;;;;0.10;0.10;;;23.00;74.80;;;;;;4208722;28;20494;-50
2021/06/28 07:05:38;;;;;;;0.20;0.20;;;23.10;75.20;;;;;;4208820;28;20052;-53
2021/06/28 07:08:00;;;;;;;0.10;0.10;;;23.10;75.20;;;;;;4206492;28;20058;-52
2021/06/28 07:10:23;;;;;;;0.00;0.00;;;23.20;75.00;;;;;;4207501;28;20094;-51
2021/06/28 07:12:47;;;;;;;0.05;0.05;;;23.30;74.70;;;;;;4208847;28;20077;-50
2021/06/28 07:15:13;;;;;;;0.38;0.38;;;23.40;74.30;;;;;;4209117;28;20047;-53
2021/06/28 07:17:36;;;;;;;2.13;1.75;;;23.50;74.10;;;;;;4209181;28;20055;-51
2021/06/28 07:19:58;;;;;;;0.00;0.00;;;23.50;73.70;;;;;;4208939;28;20052;-53
2021/06/28 07:22:20;;;;;;;0.03;0.03;;;23.60;73.40;;;;;;4208913;28;20040;-53
2021/06/28 07:24:44;;;;;;;0.00;0.00;;;23.70;73.90;;;;;;4208613;28;20086;-51
2021/06/28 07:27:06;;;;;;;0.00;0.00;;;23.70;72.80;;;;;;4208037;28;20051;-51
2021/06/28 07:29:28;;;;;;;0.90;0.90;;;23.80;72.60;;;;;;4201464;28;20097;-52
2021/06/28 07:31:52;;;;;;;0.00;0.00;;;23.80;72.40;;;;;;4203896;28;20537;-51
2021/06/28 07:34:14;;;;;;;0.25;0.25;;;23.90;72.30;;;;;;4206850;28;20119;-53
2021/06/28 07:36:39;;;;;;;0.10;0.10;;;23.90;73.10;;;;;;4208665;28;20052;-52
2021/06/28 07:39:03;;;;;;;0.30;0.30;;;23.90;72.00;;;;;;4207481;28;20135;-54
2021/06/28 07:41:25;;;;;;;0.70;0.70;;;24.00;72.00;;;;;;4208511;28;20048;-54
2021/06/28 07:43:48;;;;;;;0.20;0.20;;;24.00;71.90;;;;;;4208509;28;20055;-54
2021/06/28 07:46:11;;;;;;;0.10;0.10;;;24.00;71.90;;;;;;4207111;28;20410;-53
2021/06/28 07:48:34;;;;;;;0.10;0.10;;;24.10;71.80;;;;;;4207971;28;20498;-52
2021/06/28 07:50:57;;;;;;;0.00;0.00;;;24.10;71.70;;;;;;4208495;28;20051;-54
2021/06/28 07:53:19;;;;;;;0.00;0.00;;;24.10;71.70;;;;;;4208523;28;20073;-50
2021/06/28 07:55:43;;;;;;;0.00;0.00;;;24.10;71.80;;;;;;4207587;28;20574;-51
2021/06/28 07:58:05;;;;;;;0.45;0.45;;;24.10;71.90;;;;;;4208240;28;20054;-48
2021/06/28 08:00:28;;;;;;;0.00;0.00;;;24.10;71.90;;;;;;4208456;28;20058;-55
2021/06/28 08:02:50;;;;;;;0.20;0.20;;;24.10;72.00;;;;;;4208105;28;20506;-54
2021/06/28 08:05:14;;;;;;;0.52;0.45;;;24.10;72.10;;;;;;4208476;28;20068;-51
2021/06/28 08:07:36;;;;;;;0.45;0.45;;;24.10;72.10;;;;;;4207696;28;20052;-52
2021/06/28 08:09:58;;;;;;;0.25;0.25;;;24.10;72.20;;;;;;4206274;28;20482;-52
2021/06/28 08:12:21;;;;;;;0.25;0.25;;;24.10;72.20;;;;;;4197083;28;20081;-53
2021/06/28 08:14:43;;;;;;;0.00;0.00;;;24.10;72.10;;;;;;4224644;28;20052;-53
2021/06/28 08:17:05;;;;;;;4.22;0.38;;;24.20;72.10;;;;;;4181452;28;20136;-54
2021/06/28 08:19:27;;;;;;;0.20;0.20;;;24.20;73.10;;;;;;4184212;28;20483;-54
2021/06/28 08:21:54;;;;;;;0.10;0.10;;;24.20;72.20;;;;;;4207679;28;20550;-54
2021/06/28 08:24:16;;;;;;;0.75;0.75;;;24.20;72.40;;;;;;4208083;28;20056;-52
2021/06/28 08:26:40;;;;;;;1.75;1.00;;;24.20;72.30;;;;;;4191066;28;20143;-53
2021/06/28 08:29:05;;;;;;;0.20;0.20;;;24.30;72.50;;;;;;4208032;28;20554;-54
2021/06/28 08:31:27;;;;;;;0.00;0.00;;;24.30;72.60;;;;;;4201183;28;20044;-55
2021/06/28 08:34:07;;;;;;;0.00;0.00;;;24.30;72.80;;;;;;4207872;28;20048;-56
2021/06/28 08:36:29;;;;;;;0.00;0.00;;;24.30;73.10;;;;;;4207825;28;20059;-57
2021/06/28 08:38:53;;;;;;;0.30;0.30;;;24.40;73.20;;;;;;4206403;28;20145;-52
2021/06/28 08:41:16;;;;;;;0.52;0.52;;;24.40;73.30;;;;;;4207363;28;20135;-52
2021/06/28 08:43:39;;;;;;;1.40;1.30;;;24.50;73.40;;;;;;4207687;28;20048;-69
2021/06/28 08:46:01;;;;;;;1.00;1.00;;;24.50;73.30;;;;;;4206290;28;20117;-64
2021/06/28 08:48:23;;;;;;;2.78;1.77;;;24.60;73.30;;;;;;4207477;28;20067;-68
2021/06/28 08:50:46;;;;;;;1.20;1.20;;;24.60;73.90;;;;;;4207765;28;20063;-70
2021/06/28 08:53:10;;;;;;;0.45;0.10;;;24.70;72.60;;;;;;4207709;28;20047;-67
2021/06/28 08:55:34;;;;;;;0.57;0.57;;;24.70;72.20;;;;;;4207626;28;20535;-65
2021/06/28 08:57:56;;;;;;;0.17;0.17;;;24.70;72.30;;;;;;4206236;28;20097;-61
2021/06/28 09:00:20;;;;;;;0.45;0.45;;;24.70;72.40;;;;;;4207618;28;20048;-53
2021/06/28 09:02:43;;;;;;;0.30;0.30;;;24.80;72.50;;;;;;4207816;28;20050;-62
2021/06/28 09:05:08;;;;;;;2.55;1.00;;;24.80;72.90;;;;;;4208182;28;20040;-57
2021/06/28 09:07:29;;;;;;;0.20;0.20;;;24.90;73.00;;;;;;4207745;28;20557;-59
2021/06/28 09:09:52;;;;;;;0.05;0.05;;;24.90;72.90;;;;;;4207648;28;20036;-59
2021/06/28 09:12:16;;;;;;;0.15;0.15;;;24.90;72.30;;;;;;4205924;28;20630;-57
2021/06/28 09:14:46;;;;;;;0.28;0.25;;;25.00;72.10;;;;;;4207727;28;20514;-59
2021/06/28 09:17:08;;;;;;;0.00;0.00;;;25.00;72.00;;;;;;4207589;28;20051;-59
2021/06/28 09:19:30;;;;;;;0.30;0.30;;;25.00;72.10;;;;;;4208021;28;20494;-59
2021/06/28 09:21:55;;;;;;;0.10;0.10;;;25.00;71.90;;;;;;4208873;28;20521;-59
2021/06/28 09:24:26;;;;;;;0.28;0.28;;;25.00;71.60;;;;;;4210904;28;20094;-59
2021/06/28 09:26:48;;;;;;;;;;;25.00;71.60;;;;;;4211605;28;20493;-58
2021/06/28 09:29:14;;;;;;;0.17;0.17;;;25.10;72.00;;;;;;4211130;28;19990;-50
2021/06/28 09:31:42;;;;;;;0.00;0.00;;;25.10;72.20;;;;;;4210535;28;20083;-54
2021/06/28 09:34:09;;;;;;;2.72;0.77;;;25.20;72.60;;;;;;4210738;28;20056;-55
2021/06/28 09:36:31;;;;;;;0.00;0.00;;;25.20;72.30;;;;;;4210654;28;20060;-58
2021/06/28 09:38:53;;;;;;;0.40;0.40;;;25.30;72.50;;;;;;4210414;28;20070;-59
2021/06/28 09:41:23;;;;;;;0.57;0.57;;;25.30;72.10;;;;;;4210226;28;20043;-57
2021/06/28 09:43:46;;;;;;;0.25;0.25;;;25.30;72.40;;;;;;4209979;28;20047;-56
2021/06/28 09:46:17;;;;;;;0.20;0.20;;;25.40;72.30;;;;;;4210590;28;20044;-59
2021/06/28 09:48:48;;;;;;;0.63;0.63;;;25.40;72.20;;;;;;4210821;28;20071;-49
2021/06/28 09:51:23;;;;;;;;;;;25.50;72.90;;;;;;4210774;28;20048;-56
2021/06/28 09:53:46;;;;;;;0.25;0.25;;;25.60;72.80;;;;;;4209710;28;19924;-57
2021/06/28 09:56:08;;;;;;;0.40;0.40;;;25.60;73.00;;;;;;4210562;28;20036;-55
2021/06/28 09:58:30;;;;;;;0.20;0.20;;;25.70;72.30;;;;;;4210336;28;20075;-55
2021/06/28 10:00:55;;;;;;;3.25;1.15;;;25.70;72.10;;;;;;4210449;28;20529;-53
2021/06/28 10:03:35;;;;;;;0.05;0.05;;;25.80;72.30;;;;;;4209352;28;20058;-54
2021/06/28 10:06:11;;;;;;;0.00;0.00;;;25.80;72.40;;;;;;4210051;28;20059;-52
2021/06/28 10:08:34;;;;;;;0.20;0.20;;;25.80;71.90;;;;;;4210133;28;20557;-53
2021/06/28 10:11:14;;;;;;;0.50;0.50;;;25.80;71.70;;;;;;4210034;28;20044;-54
2021/06/28 10:13:36;;;;;;;0.20;0.20;;;25.80;71.60;;;;;;4209803;28;20417;-53
2021/06/28 10:15:58;;;;;;;0.10;0.10;;;25.80;72.30;;;;;;4210185;28;20098;-52
2021/06/28 10:18:21;;;;;;;0.17;0.17;;;25.80;71.30;;;;;;4206030;28;20052;-54
2021/06/28 10:20:45;;;;;;;0.08;0.08;;;25.80;71.20;;;;;;4208743;28;20044;-57
2021/06/28 10:23:08;;;;;;;3.25;1.15;;;25.80;71.10;;;;;;4183072;28;20465;-52
2021/06/28 10:25:30;;;;;;;1.55;0.80;;;25.80;71.00;;;;;;4203895;28;20494;-51
2021/06/28 10:27:54;;;;;;;0.63;0.63;;;25.80;70.70;;;;;;4209765;28;20414;-54
2021/06/28 10:30:19;;;;;;;0.70;0.70;;;25.80;70.60;;;;;;4209909;28;20079;-53
2021/06/28 10:32:44;;;;;;;0.00;0.00;;;25.80;70.60;;;;;;4207899;28;20052;-55
2021/06/28 10:35:09;;;;;;;0.30;0.30;;;25.80;70.30;;;;;;4209390;28;20561;-54
2021/06/28 10:37:39;;;;;;;0.25;0.22;;;25.80;70.20;;;;;;4209568;28;20056;-53
2021/06/28 10:40:03;;;;;;;0.10;0.10;;;25.90;70.10;;;;;;4198860;28;20052;-55
2021/06/28 10:42:31;;;;;;;0.15;0.15;;;25.90;70.00;;;;;;4209339;28;20414;-56
2021/06/28 10:44:53;;;;;;;0.75;0.70;;;25.90;69.80;;;;;;4209627;28;20127;-56
2021/06/28 10:47:15;;;;;;;0.10;0.10;;;25.90;69.70;;;;;;4209337;28;20044;-55
2021/06/28 10:49:45;;;;;;;0.30;0.30;;;26.00;69.60;;;;;;4209418;28;20055;-53
2021/06/28 10:52:08;;;;;;;1.00;0.45;;;25.90;69.40;;;;;;4208486;28;20504;-53
2021/06/28 10:54:34;;;;;;;0.05;0.05;;;26.00;69.40;;;;;;4207960;28;20054;-52
2021/06/28 10:56:59;;;;;;;0.40;0.40;;;26.00;69.20;;;;;;4209681;28;20059;-54
2021/06/28 10:59:25;;;;;;;0.28;0.28;;;26.00;69.10;;;;;;4208609;28;20143;-52
2021/06/28 11:01:56;;;;;;;0.70;0.70;;;26.00;69.00;;;;;;4207681;28;20072;-52
2021/06/28 11:04:27;;;;;;;0.20;0.20;;;26.00;69.00;;;;;;4208412;28;20052;-53
2021/06/28 11:07:07;;;;;;;0.52;0.52;;;26.10;68.80;;;;;;4209215;28;20047;-56
2021/06/28 11:09:36;;;;;;;1.48;0.45;;;26.10;68.70;;;;;;4209171;28;20048;-54
2021/06/28 11:11:59;;;;;;;0.88;0.88;;;26.10;68.60;;;;;;4209119;28;20082;-51
2021/06/28 11:14:41;;;;;;;0.10;0.10;;;26.20;68.50;;;;;;4209085;28;20427;-54
2021/06/28 11:17:07;;;;;;;0.43;0.43;;;26.20;68.40;;;;;;4209094;28;20501;-50
2021/06/28 11:19:53;;;;;;;0.40;0.40;;;26.20;68.20;;;;;;4209504;28;20036;-52
2021/06/28 11:22:36;;;;;;;0.52;0.52;;;26.20;68.00;;;;;;4206962;28;20051;-56
2021/06/28 11:25:01;;;;;;;0.95;0.95;;;26.30;68.10;;;;;;4203452;28;20070;-54
2021/06/28 11:27:23;;;;;;;0.00;0.00;;;26.30;67.80;;;;;;4202851;28;20047;-51
2021/06/28 11:29:49;;;;;;;2.47;0.50;;;26.30;67.70;;;;;;4192192;28;20414;-54
2021/06/28 11:32:20;;;;;;;0.10;0.10;;;26.30;67.60;;;;;;4208751;28;20131;-55
2021/06/28 11:34:43;;;;;;;0.10;0.10;;;26.40;67.70;;;;;;4208252;28;20078;-55
2021/06/28 11:37:06;;;;;;;0.25;0.25;;;26.40;67.70;;;;;;4190841;28;20568;-55
2021/06/28 11:39:31;;;;;;;12.63;1.00;;;26.40;67.60;;;;;;4176433;28;20051;-54
2021/06/28 11:42:24;;;;;;;0.75;0.75;;;26.40;67.50;;;;;;4191498;28;20645;-55
2021/06/28 11:44:51;;;;;;;0.45;0.45;;;26.50;67.50;;;;;;4190499;28;20501;-54
2021/06/28 11:47:13;;;;;;;0.13;0.13;;;26.50;67.40;;;;;;4189453;28;20110;-53
2021/06/28 11:49:35;;;;;;;0.57;0.57;;;26.50;67.40;;;;;;4191751;28;20060;-52
2021/06/28 11:51:58;;;;;;;0.00;0.00;;;26.50;67.30;;;;;;4192871;28;20056;-56
2021/06/28 11:54:25;;;;;;;0.17;0.17;;;26.60;67.40;;;;;;4206579;28;20099;-55
2021/06/28 11:56:49;;;;;;;0.17;0.17;;;26.60;67.60;;;;;;4207891;28;20051;-59
2021/06/28 11:59:14;;;;;;;0.35;0.15;;;26.70;68.50;;;;;;4207622;28;20047;-51
2021/06/28 12:01:39;;;;;;;0.40;0.40;;;26.80;70.60;;;;;;4205734;28;20050;-52
2021/06/28 12:04:04;;;;;;;0.13;0.13;;;26.80;70.20;;;;;;4207782;28;20052;-54
2021/06/28 12:06:28;;;;;;;0.28;0.28;;;26.80;70.80;;;;;;4207720;28;20108;-53
2021/06/28 12:09:04;;;;;;;0.00;0.00;;;26.80;70.50;;;;;;4207184;28;20044;-56
2021/06/28 12:11:26;;;;;;;0.10;0.10;;;26.90;70.40;;;;;;4207335;28;20505;-54
2021/06/28 12:13:48;;;;;;;0.73;0.73;;;26.90;69.80;;;;;;4208166;28;20139;-54
2021/06/28 12:16:24;;;;;;;3.38;1.80;;;26.90;69.80;;;;;;4208232;28;20147;-53
2021/06/28 12:18:47;;;;;;;0.30;0.30;;;26.90;70.40;;;;;;4207508;28;20059;-55
2021/06/28 12:21:10;;;;;;;0.20;0.20;;;27.00;71.40;;;;;;4207869;28;20486;-51
2021/06/28 12:23:32;;;;;;;4.22;3.25;;;27.00;71.00;;;;;;4206952;28;20131;-53
2021/06/28 12:25:54;;;;;;;12.85;5.38;;;27.00;71.40;;;;;;4207762;28;20136;-54
2021/06/28 12:28:26;;;;;;;3.13;1.75;;;27.10;72.00;;;;;;4206290;28;20421;-53
2021/06/28 12:30:51;;;;;;;1.02;1.02;;;27.10;72.60;;;;;;4207218;28;20048;-51